createdAt,value
2022-08-19T00:01:53.265Z,18.25
2022-08-19T00:04:23.643Z,26.38
2022-08-19T00:06:51.036Z,20.42
2022-08-19T00:09:20.294Z,12.00
2022-08-19T00:11:47.982Z,12.30
2022-08-19T00:14:17.013Z,15.07
2022-08-19T00:16:46.743Z,12.10
2022-08-19T00:19:14.530Z,7.57
2022-08-19T00:21:41.823Z,9.70
2022-08-19T00:24:11.611Z,10.90
2022-08-19T00:26:39.008Z,11.90
2022-08-19T00:29:07.869Z,11.48
2022-08-19T00:31:35.155Z,14.60
2022-08-19T00:34:02.532Z,12.17
2022-08-19T00:36:30.087Z,15.15
2022-08-19T00:38:57.359Z,9.77
2022-08-19T00:41:27.540Z,10.50
2022-08-19T00:44:13.751Z,13.43
2022-08-19T00:46:44.985Z,12.73
2022-08-19T00:49:26.008Z,15.88
2022-08-19T00:51:57.809Z,10.75
2022-08-19T00:54:29.139Z,20.27
2022-08-19T00:57:05.377Z,11.75
2022-08-19T00:59:56.502Z,14.13
2022-08-19T01:02:19.859Z,12.23
2022-08-19T01:04:55.623Z,14.00
2022-08-19T01:07:23.002Z,11.93
2022-08-19T01:09:50.967Z,14.98
2022-08-19T01:12:19.251Z,12.27
2022-08-19T01:14:48.814Z,16.98
2022-08-19T01:17:16.980Z,18.10
2022-08-19T01:19:48.266Z,16.88
2022-08-19T01:22:30.142Z,14.15
2022-08-19T01:25:03.557Z,15.27
2022-08-19T01:27:44.901Z,13.05
2022-08-19T01:30:18.993Z,13.30
2022-08-19T01:32:46.165Z,17.95
2022-08-19T01:35:14.025Z,16.20
2022-08-19T01:37:50.772Z,14.23
2022-08-19T01:40:21.195Z,13.15
2022-08-19T01:42:50.190Z,11.15
2022-08-19T01:45:18.389Z,13.38
2022-08-19T01:47:52.774Z,17.67
2022-08-19T01:50:29.181Z,18.40
2022-08-19T01:53:02.376Z,18.05
2022-08-19T01:55:40.979Z,12.40
2022-08-19T01:58:16.034Z,15.20
2022-08-19T02:00:43.790Z,11.65
2022-08-19T02:03:12.521Z,15.10
2022-08-19T02:05:42.999Z,12.52
2022-08-19T02:08:11.699Z,20.77
2022-08-19T02:10:42.006Z,12.30
2022-08-19T02:13:09.397Z,13.40
2022-08-19T02:15:56.417Z,12.40
2022-08-19T02:18:28.093Z,15.35
2022-08-19T02:20:56.344Z,19.88
2022-08-19T02:23:23.425Z,17.15
2022-08-19T02:25:52.237Z,20.48
2022-08-19T02:28:19.315Z,15.40
2022-08-19T02:30:46.812Z,16.55
2022-08-19T02:33:13.906Z,12.60
2022-08-19T02:35:45.416Z,21.65
2022-08-19T02:38:27.537Z,19.33
2022-08-19T02:40:57.686Z,16.33
2022-08-19T02:43:25.708Z,16.05
2022-08-19T02:45:53.147Z,12.90
2022-08-19T02:48:22.300Z,26.70
2022-08-19T02:50:56.380Z,15.77
2022-08-19T02:53:26.916Z,13.23
2022-08-19T02:55:54.365Z,18.08
2022-08-19T02:58:22.860Z,17.52
2022-08-19T03:00:53.824Z,21.52
2022-08-19T03:03:21.180Z,17.77
2022-08-19T03:05:56.912Z,18.60
2022-08-19T03:08:26.912Z,15.85
2022-08-19T03:10:54.956Z,13.25
2022-08-19T03:13:22.538Z,17.17
2022-08-19T03:15:49.718Z,12.18
2022-08-19T03:18:17.937Z,25.37
2022-08-19T03:20:48.233Z,16.73
2022-08-19T03:23:16.589Z,15.15
2022-08-19T03:25:47.678Z,23.75
2022-08-19T03:28:29.882Z,16.08
2022-08-19T03:31:41.843Z,19.97
2022-08-19T03:33:56.916Z,18.75
2022-08-19T03:36:27.100Z,17.05
2022-08-19T03:38:59.607Z,19.48
2022-08-19T03:41:45.319Z,21.13
2022-08-19T03:44:17.001Z,17.07
2022-08-19T03:46:47.621Z,14.68
2022-08-19T03:49:14.952Z,13.77
2022-08-19T03:51:43.455Z,13.50
2022-08-19T03:54:14.324Z,18.08
2022-08-19T03:56:44.294Z,17.10
2022-08-19T03:59:16.649Z,17.77
2022-08-19T04:01:44.141Z,14.93
2022-08-19T04:04:11.336Z,18.58
2022-08-19T04:06:40.088Z,15.88
2022-08-19T04:09:12.352Z,23.25
2022-08-19T04:11:46.030Z,16.00
2022-08-19T04:14:17.822Z,26.27
2022-08-19T04:16:45.944Z,17.83
2022-08-19T04:19:14.173Z,20.27
2022-08-19T04:21:43.617Z,19.23
2022-08-19T04:24:11.615Z,13.00
2022-08-19T04:26:40.190Z,16.88
2022-08-19T04:29:17.022Z,18.75
2022-08-19T04:31:46.231Z,23.02
2022-08-19T04:34:16.188Z,17.17
2022-08-19T04:36:45.991Z,19.20
2022-08-19T04:39:16.949Z,19.27
2022-08-19T04:42:03.854Z,20.63
2022-08-19T04:44:35.290Z,17.90
2022-08-19T04:47:11.273Z,18.73
2022-08-19T04:49:38.706Z,15.55
2022-08-19T04:52:05.885Z,21.67
2022-08-19T04:54:38.316Z,21.63
2022-08-19T04:57:11.139Z,25.08
2022-08-19T04:59:39.967Z,18.63
2022-08-19T05:02:09.695Z,21.05
2022-08-19T05:04:40.346Z,21.73
2022-08-19T05:07:09.226Z,19.92
2022-08-19T05:09:57.798Z,14.52
2022-08-19T05:12:28.733Z,19.43
2022-08-19T05:14:58.340Z,15.95
2022-08-19T05:17:29.035Z,15.85
2022-08-19T05:20:16.879Z,23.02
2022-08-19T05:22:46.313Z,31.33
2022-08-19T05:25:16.689Z,21.50
2022-08-19T05:27:43.736Z,15.00
2022-08-19T05:30:12.392Z,13.20
2022-08-19T05:32:40.904Z,17.50
2022-08-19T05:35:08.460Z,15.27
2022-08-19T05:37:35.532Z,19.50
2022-08-19T05:40:10.668Z,18.20
2022-08-19T05:42:38.608Z,17.58
2022-08-19T05:45:06.147Z,16.25
2022-08-19T05:47:33.284Z,16.30
2022-08-19T05:50:00.472Z,21.20
2022-08-19T05:52:29.188Z,15.32
2022-08-19T05:54:57.503Z,19.95
2022-08-19T05:57:31.649Z,25.13
2022-08-19T06:00:01.286Z,16.35
2022-08-19T06:02:32.015Z,16.50
2022-08-19T06:04:59.449Z,23.40
2022-08-19T06:07:26.636Z,17.98
2022-08-19T06:10:00.252Z,13.77
2022-08-19T06:12:35.672Z,22.17
2022-08-19T06:15:09.800Z,16.50
2022-08-19T06:17:37.260Z,19.13
2022-08-19T06:20:13.055Z,16.73
2022-08-19T06:22:45.583Z,20.27
2022-08-19T06:25:14.925Z,15.93
2022-08-19T06:27:58.956Z,16.77
2022-08-19T06:30:29.784Z,16.50
2022-08-19T06:32:56.931Z,16.65
2022-08-19T06:35:24.076Z,16.02
2022-08-19T06:37:51.078Z,17.08
2022-08-19T06:40:18.255Z,16.73
2022-08-19T06:42:54.153Z,18.90
2022-08-19T06:45:34.577Z,16.00
2022-08-19T06:48:03.487Z,21.58
2022-08-19T06:50:30.637Z,20.33
2022-08-19T06:52:57.650Z,18.73
2022-08-19T06:55:30.378Z,18.35
2022-08-19T06:58:04.878Z,16.52
2022-08-19T07:03:07.789Z,18.00
2022-08-19T07:05:45.773Z,15.40
2022-08-19T07:08:14.690Z,18.85
2022-08-19T07:10:49.301Z,17.38
2022-08-19T07:13:16.434Z,19.33
2022-08-19T07:15:43.576Z,19.80
2022-08-19T07:18:11.863Z,17.70
2022-08-19T07:20:40.449Z,19.98
2022-08-19T07:23:09.918Z,17.13
2022-08-19T07:25:53.157Z,19.58
2022-08-19T07:28:24.464Z,19.73
2022-08-19T07:30:53.080Z,26.83
2022-08-19T07:33:23.086Z,14.40
2022-08-19T07:35:50.942Z,16.65
2022-08-19T07:38:18.251Z,21.05
2022-08-19T07:40:47.285Z,20.60
2022-08-19T07:43:17.080Z,11.57
2022-08-19T07:45:48.256Z,20.38
2022-08-19T07:48:17.520Z,21.40
2022-08-19T07:51:11.335Z,23.67
2022-08-19T07:53:45.963Z,30.25
2022-08-19T07:56:15.136Z,13.20
2022-08-19T07:58:44.993Z,22.02
2022-08-19T08:01:21.886Z,13.30
2022-08-19T08:04:08.535Z,14.70
2022-08-19T08:06:54.245Z,24.70
2022-08-19T08:09:39.378Z,22.40
2022-08-19T08:12:33.002Z,17.55
2022-08-19T08:15:02.994Z,16.92
2022-08-19T08:17:48.664Z,13.30
2022-08-19T08:20:18.106Z,18.05
2022-08-19T08:23:07.638Z,16.07
2022-08-19T08:25:36.529Z,17.92
2022-08-19T08:28:04.789Z,15.48
2022-08-19T08:30:33.961Z,11.75
2022-08-19T08:33:02.742Z,11.43
2022-08-19T08:35:30.032Z,21.93
2022-08-19T08:37:58.613Z,13.77
2022-08-19T08:40:31.485Z,16.45
2022-08-19T08:43:26.724Z,9.98
2022-08-19T08:46:01.619Z,16.25
2022-08-19T08:48:54.590Z,16.60
2022-08-19T08:51:29.912Z,13.85
2022-08-19T08:54:10.752Z,16.15
2022-08-19T08:56:45.372Z,11.98
2022-08-19T08:59:22.924Z,15.43
2022-08-19T09:01:50.879Z,23.67
2022-08-19T09:04:21.140Z,11.43
2022-08-19T09:06:55.983Z,14.05
2022-08-19T09:09:35.919Z,15.77
2022-08-19T09:12:16.447Z,27.58
2022-08-19T09:14:55.134Z,18.13
2022-08-19T09:17:28.585Z,14.60
2022-08-19T09:20:18.111Z,16.23
2022-08-19T09:22:45.457Z,19.30
2022-08-19T09:25:16.643Z,17.13
2022-08-19T09:27:44.217Z,11.83
2022-08-19T09:30:22.098Z,11.48
2022-08-19T09:32:53.916Z,12.93
2022-08-19T09:35:25.371Z,19.20
2022-08-19T09:37:59.668Z,12.75
2022-08-19T09:40:30.330Z,8.83
2022-08-19T09:43:01.668Z,16.73
2022-08-19T09:45:29.089Z,18.60
2022-08-19T09:47:57.777Z,16.73
2022-08-19T09:50:25.473Z,22.35
2022-08-19T09:52:55.766Z,15.80
2022-08-19T09:55:31.208Z,19.25
2022-08-19T09:58:03.307Z,37.55
2022-08-19T10:00:32.026Z,17.38
2022-08-19T10:02:59.494Z,26.15
2022-08-19T10:05:45.281Z,31.27
2022-08-19T10:08:28.883Z,18.55
2022-08-19T10:10:57.316Z,22.20
2022-08-19T10:13:28.776Z,13.93
2022-08-19T10:15:58.695Z,17.25
2022-08-19T10:18:26.552Z,17.50
2022-08-19T10:20:54.729Z,13.73
2022-08-19T10:23:22.659Z,12.18
2022-08-19T10:25:50.883Z,11.75
2022-08-19T10:28:19.461Z,12.95
2022-08-19T10:30:56.463Z,27.10
2022-08-19T10:33:52.948Z,14.75
2022-08-19T10:36:16.225Z,20.65
2022-08-19T10:38:52.284Z,21.35
2022-08-19T10:41:25.286Z,31.00
2022-08-19T10:43:55.425Z,19.77
2022-08-19T10:46:26.902Z,19.70
2022-08-19T10:48:55.546Z,21.33
2022-08-19T10:51:48.082Z,16.98
2022-08-19T10:54:16.537Z,22.67
2022-08-19T10:56:52.683Z,24.83
2022-08-19T10:59:35.759Z,28.42
2022-08-19T11:02:05.444Z,26.90
2022-08-19T11:04:33.635Z,21.15
2022-08-19T11:07:00.724Z,15.00
2022-08-19T11:09:34.336Z,7.70
2022-08-19T11:12:03.053Z,12.68
2022-08-19T11:14:34.493Z,15.20
2022-08-19T11:17:02.351Z,8.25
2022-08-19T11:19:29.441Z,10.55
2022-08-19T11:21:56.582Z,12.90
2022-08-19T11:24:26.940Z,7.75
2022-08-19T11:27:01.171Z,13.85
2022-08-19T11:29:28.970Z,16.13
2022-08-19T11:31:56.289Z,13.45
2022-08-19T11:34:28.581Z,17.13
2022-08-19T11:36:59.801Z,11.43
2022-08-19T11:39:29.143Z,10.63
2022-08-19T11:41:56.470Z,13.82
2022-08-19T11:44:23.544Z,16.13
2022-08-19T11:46:50.662Z,10.27
2022-08-19T11:49:22.674Z,11.98
2022-08-19T11:51:51.750Z,12.82
2022-08-19T11:54:21.044Z,10.52
2022-08-19T11:56:50.162Z,11.98
2022-08-19T11:59:17.376Z,15.27
2022-08-19T12:01:44.640Z,9.45
2022-08-19T12:04:12.293Z,13.35
2022-08-19T12:06:40.929Z,13.52
2022-08-19T12:09:10.526Z,19.02
2022-08-19T12:11:39.341Z,25.03
2022-08-19T12:14:07.995Z,12.82
2022-08-19T12:16:37.746Z,20.05
2022-08-19T12:19:06.903Z,20.35
2022-08-19T12:21:36.009Z,12.13
2022-08-19T12:24:04.710Z,12.83
2022-08-19T12:26:32.555Z,14.10
2022-08-19T12:29:00.665Z,18.95
2022-08-19T12:31:29.460Z,14.85
2022-08-19T12:33:56.833Z,12.05
2022-08-19T12:36:26.644Z,15.70
2022-08-19T12:38:53.981Z,15.70
2022-08-19T12:41:23.270Z,9.65
2022-08-19T12:43:53.541Z,13.05
2022-08-19T12:46:23.032Z,14.77
2022-08-19T12:48:56.214Z,17.13
2022-08-19T12:51:26.397Z,20.73
2022-08-19T12:53:53.539Z,20.25
2022-08-19T12:56:23.545Z,18.00
2022-08-19T12:58:53.306Z,17.85
2022-08-19T13:01:22.807Z,10.67
2022-08-19T13:03:51.396Z,11.45
2022-08-19T13:06:20.333Z,12.48
2022-08-19T13:08:47.759Z,14.60
2022-08-19T13:11:20.199Z,17.15
2022-08-19T13:13:50.746Z,10.20
2022-08-19T13:16:18.830Z,27.33
2022-08-19T13:18:53.024Z,31.92
2022-08-19T13:21:24.016Z,14.27
2022-08-19T13:23:52.109Z,18.80
2022-08-19T13:26:19.792Z,15.83
2022-08-19T13:29:05.573Z,12.38
2022-08-19T13:31:54.105Z,23.40
2022-08-19T13:34:31.219Z,21.58
2022-08-19T13:36:59.144Z,13.85
2022-08-19T13:39:26.414Z,20.90
2022-08-19T13:41:53.798Z,17.92
2022-08-19T13:44:21.211Z,16.63
2022-08-19T13:46:50.096Z,10.95
2022-08-19T13:49:21.712Z,11.43
2022-08-19T13:51:48.938Z,16.10
2022-08-19T13:54:23.344Z,15.18
2022-08-19T13:56:50.381Z,14.90
2022-08-19T13:59:18.191Z,17.27
2022-08-19T14:01:47.568Z,15.57
2022-08-19T14:04:14.552Z,22.53
2022-08-19T14:06:41.629Z,21.40
2022-08-19T14:09:08.844Z,19.20
2022-08-19T14:11:35.803Z,22.83
2022-08-19T14:14:02.774Z,20.48
2022-08-19T14:16:31.488Z,18.93
2022-08-19T14:19:00.776Z,20.25
2022-08-19T14:21:27.927Z,18.38
2022-08-19T14:23:57.469Z,20.33
2022-08-19T14:26:24.894Z,22.98
2022-08-19T14:28:55.543Z,21.63
2022-08-19T14:31:27.850Z,19.20
2022-08-19T14:33:58.394Z,16.88
2022-08-19T14:36:25.693Z,20.70
2022-08-19T14:38:52.896Z,27.20
2022-08-19T14:41:26.983Z,33.27
2022-08-19T14:43:55.132Z,29.52
2022-08-19T14:46:26.240Z,32.35
2022-08-19T14:48:57.599Z,30.27
2022-08-19T14:51:27.844Z,41.15
2022-08-19T14:53:56.441Z,40.80
2022-08-19T14:56:27.667Z,34.78
2022-08-19T14:58:55.649Z,34.42
2022-08-19T15:01:24.253Z,30.95
2022-08-19T15:03:54.073Z,30.23
2022-08-19T15:06:22.673Z,26.93
2022-08-19T15:08:52.882Z,41.72
2022-08-19T15:11:23.722Z,36.35
2022-08-19T15:13:51.443Z,30.08
2022-08-19T15:16:19.456Z,26.42
2022-08-19T15:18:50.775Z,23.10
2022-08-19T15:21:26.797Z,17.35
2022-08-19T15:23:56.560Z,24.30
2022-08-19T15:26:28.639Z,19.90
2022-08-19T15:28:58.187Z,20.98
2022-08-19T15:31:28.759Z,18.27
2022-08-19T15:33:58.931Z,15.85
2022-08-19T15:36:27.286Z,12.82
2022-08-19T15:38:57.213Z,20.52
2022-08-19T15:41:30.868Z,16.80
2022-08-19T15:44:10.290Z,23.17
2022-08-19T15:46:39.522Z,17.90
2022-08-19T15:49:07.896Z,16.65
2022-08-19T15:51:39.342Z,26.33
2022-08-19T15:54:09.560Z,19.05
2022-08-19T15:56:57.970Z,21.70
2022-08-19T15:59:47.381Z,16.80
2022-08-19T16:02:34.980Z,17.33
2022-08-19T16:05:26.582Z,15.35
2022-08-19T16:08:01.467Z,13.43
2022-08-19T16:10:31.165Z,14.03
2022-08-19T16:13:03.179Z,13.07
2022-08-19T16:15:46.259Z,9.30
2022-08-19T16:18:15.932Z,11.25
2022-08-19T16:20:44.587Z,14.93
2022-08-19T16:23:11.843Z,12.97
2022-08-19T16:25:39.624Z,14.75
2022-08-19T16:28:10.009Z,13.10
2022-08-19T16:30:48.501Z,16.08
2022-08-19T16:33:40.805Z,15.32
2022-08-19T16:36:26.649Z,13.97
2022-08-19T16:38:55.578Z,12.18
2022-08-19T16:41:28.276Z,22.92
2022-08-19T16:43:55.708Z,9.70
2022-08-19T16:46:26.846Z,12.07
2022-08-19T16:48:54.738Z,8.93
2022-08-19T16:51:23.020Z,9.93
2022-08-19T16:53:52.653Z,12.82
2022-08-19T16:56:21.360Z,10.25
2022-08-19T16:58:50.915Z,13.93
2022-08-19T17:01:19.513Z,9.77
2022-08-19T17:03:48.734Z,9.45
2022-08-19T17:06:20.891Z,15.40
2022-08-19T17:08:50.936Z,12.35
2022-08-19T17:11:19.857Z,10.15
2022-08-19T17:13:51.098Z,11.20
2022-08-19T17:16:22.266Z,13.00
2022-08-19T17:18:53.048Z,10.30
2022-08-19T17:21:22.666Z,10.48
2022-08-19T17:23:49.783Z,11.18
2022-08-19T17:26:18.612Z,9.87
2022-08-19T17:28:51.997Z,10.02
2022-08-19T17:31:21.639Z,10.80
2022-08-19T17:33:52.213Z,9.10
2022-08-19T17:36:27.290Z,17.02
2022-08-19T17:38:57.378Z,18.30
2022-08-19T17:41:25.677Z,15.80
2022-08-19T17:43:53.394Z,14.43
2022-08-19T17:46:20.740Z,16.27
2022-08-19T17:48:52.754Z,9.70
2022-08-19T17:51:42.385Z,14.53
2022-08-19T17:54:16.242Z,12.70
2022-08-19T17:56:48.012Z,10.00
2022-08-19T17:59:20.165Z,21.80
2022-08-19T18:01:58.117Z,19.08
2022-08-19T18:04:27.787Z,21.63
2022-08-19T18:06:56.089Z,10.00
2022-08-19T18:09:38.618Z,10.63
2022-08-19T18:12:23.507Z,12.65
2022-08-19T18:14:57.765Z,9.07
2022-08-19T18:17:28.332Z,13.17
2022-08-19T18:19:56.068Z,10.55
2022-08-19T18:22:23.043Z,12.32
2022-08-19T18:24:50.420Z,14.68
2022-08-19T18:27:17.544Z,15.23
2022-08-19T18:29:45.172Z,16.73
2022-08-19T18:32:13.054Z,11.05
2022-08-19T18:34:42.905Z,13.68
2022-08-19T18:37:10.843Z,16.20
2022-08-19T18:39:56.742Z,14.43
2022-08-19T18:42:46.230Z,8.40
2022-08-19T18:45:31.830Z,14.65
2022-08-19T18:48:26.652Z,10.75
2022-08-19T18:50:57.695Z,16.02
2022-08-19T18:53:26.281Z,12.43
2022-08-19T18:55:55.540Z,12.70
2022-08-19T18:58:34.474Z,13.88
2022-08-19T19:01:25.204Z,15.18
2022-08-19T19:03:54.323Z,13.32
2022-08-19T19:06:28.824Z,13.90
2022-08-19T19:08:56.988Z,9.70
2022-08-19T19:11:30.525Z,14.82
2022-08-19T19:13:57.725Z,10.80
2022-08-19T19:16:28.795Z,8.05
2022-08-19T19:18:59.656Z,11.43
2022-08-19T19:21:26.971Z,8.47
2022-08-19T19:23:55.648Z,9.65
2022-08-19T19:26:23.528Z,13.55
2022-08-19T19:28:51.573Z,10.32
2022-08-19T19:31:26.857Z,10.73
2022-08-19T19:33:55.869Z,8.53
2022-08-19T19:36:25.549Z,14.90
2022-08-19T19:38:53.165Z,10.85
2022-08-19T19:41:26.375Z,9.38
2022-08-19T19:44:29.355Z,10.07
2022-08-19T19:46:45.970Z,7.03
2022-08-19T19:49:14.106Z,6.10
2022-08-19T19:51:43.358Z,9.98
2022-08-19T19:54:15.698Z,12.73
2022-08-19T19:56:48.659Z,9.10
2022-08-19T19:59:16.280Z,8.60
2022-08-19T20:01:46.878Z,12.95
2022-08-19T20:04:15.460Z,10.02
2022-08-19T20:06:42.557Z,9.02
2022-08-19T20:09:10.861Z,13.35
2022-08-19T20:11:42.044Z,9.13
2022-08-19T20:14:12.716Z,6.00
2022-08-19T20:16:44.070Z,7.65
2022-08-19T20:19:13.493Z,10.43
2022-08-19T20:21:43.784Z,7.18
2022-08-19T20:24:14.053Z,7.67
2022-08-19T20:26:42.743Z,8.50
2022-08-19T20:29:38.340Z,7.25
2022-08-19T20:31:59.457Z,11.38
2022-08-19T20:34:27.539Z,9.88
2022-08-19T20:36:54.742Z,10.50
2022-08-19T20:39:21.823Z,9.88
2022-08-19T20:41:50.964Z,11.82
2022-08-19T20:44:18.063Z,6.68
2022-08-19T20:46:54.518Z,9.38
2022-08-19T20:49:27.470Z,16.37
2022-08-19T20:51:56.274Z,8.65
2022-08-19T20:54:26.224Z,11.45
2022-08-19T20:56:53.435Z,11.23
2022-08-19T20:59:21.819Z,15.93
2022-08-19T21:01:51.908Z,8.23
2022-08-19T21:04:21.382Z,7.25
2022-08-19T21:06:50.237Z,11.95
2022-08-19T21:09:17.433Z,7.20
2022-08-19T21:11:44.671Z,9.23
2022-08-19T21:14:12.959Z,8.07
2022-08-19T21:16:40.134Z,7.75
2022-08-19T21:19:07.503Z,8.70
2022-08-19T21:21:35.093Z,11.23
2022-08-19T21:24:02.210Z,11.73
2022-08-19T21:26:29.124Z,7.50
2022-08-19T21:28:56.354Z,9.88
2022-08-19T21:31:23.552Z,7.20
2022-08-19T21:33:50.520Z,10.15
2022-08-19T21:36:17.633Z,9.68
2022-08-19T21:38:44.658Z,12.43
2022-08-19T21:41:11.709Z,13.48
2022-08-19T21:43:39.231Z,8.93
2022-08-19T21:46:07.218Z,10.10
2022-08-19T21:48:34.225Z,7.40
2022-08-19T21:51:01.413Z,23.03
2022-08-19T21:53:31.470Z,10.30
2022-08-19T21:56:01.633Z,41.15
2022-08-19T21:58:36.617Z,13.85
2022-08-19T22:01:06.461Z,25.40
2022-08-19T22:03:38.555Z,19.17
2022-08-19T22:06:06.848Z,11.88
2022-08-19T22:08:34.006Z,12.48
2022-08-19T22:11:02.959Z,13.45
2022-08-19T22:13:39.786Z,13.90
2022-08-19T22:16:09.995Z,10.47
2022-08-19T22:18:37.407Z,15.48
2022-08-19T22:21:12.318Z,20.05
2022-08-19T22:23:44.479Z,15.82
2022-08-19T22:26:12.849Z,13.18
2022-08-19T22:28:49.708Z,16.40
2022-08-19T22:31:24.642Z,14.73
2022-08-19T22:33:52.875Z,20.45
2022-08-19T22:36:20.609Z,15.23
2022-08-19T22:38:50.555Z,22.02
2022-08-19T22:41:17.662Z,17.80
2022-08-19T22:43:46.738Z,19.85
2022-08-19T22:46:17.333Z,18.83
2022-08-19T22:48:45.674Z,17.70
2022-08-19T22:51:31.278Z,17.13
2022-08-19T22:53:58.511Z,19.57
2022-08-19T22:56:26.082Z,17.17
2022-08-19T22:58:53.703Z,18.98
2022-08-19T23:01:27.460Z,18.08
2022-08-19T23:03:59.282Z,20.83
2022-08-19T23:06:31.214Z,21.97
2022-08-19T23:09:01.851Z,20.05
2022-08-19T23:11:31.494Z,16.75
2022-08-19T23:13:58.634Z,28.23
2022-08-19T23:16:25.597Z,18.40
2022-08-19T23:18:55.956Z,19.33
2022-08-19T23:21:26.740Z,18.63
2022-08-19T23:23:54.279Z,24.17
2022-08-19T23:26:23.092Z,21.58
2022-08-19T23:29:08.573Z,25.85
2022-08-19T23:31:38.266Z,27.43
2022-08-19T23:34:05.991Z,27.17
2022-08-19T23:36:35.396Z,25.30
2022-08-19T23:39:02.517Z,32.70
2022-08-19T23:41:29.583Z,30.13
2022-08-19T23:43:56.689Z,27.43
2022-08-19T23:46:28.543Z,31.02
2022-08-19T23:48:56.796Z,37.85
2022-08-19T23:51:24.796Z,32.20
2022-08-19T23:53:51.789Z,38.35
2022-08-19T23:56:21.734Z,33.67
2022-08-19T23:58:49.269Z,42.33
